Time;durP1;ratioP1;P1;durP2;ratioP2;P2;SDS_P1;SDS_P2;PMS_P1;PMS_P2;Temp;Humidity;BMP_temperature;BMP_pressure;BME280_temperature;BME280_humidity;BME280_pressure;Samples;Min_cycle;Max_cycle;Signal;HPM_P1;HPM_P2
2023/08/24 00:00:30;;;;;;;;;10.00;9.33;;;;;;;;5094756;28;8799;-59
2023/08/24 00:02:55;;;;;;;;;8.67;8.67;;;;;;;;5094871;28;8956;-59
2023/08/24 00:05:20;;;;;;;;;9.00;9.00;;;;;;;;5094720;28;8829;-59
2023/08/24 00:07:48;;;;;;;;;10.00;9.67;;;;;;;;5094733;28;8823;-59
2023/08/24 00:10:13;;;;;;;;;10.67;9.67;;;;;;;;5094238;28;8791;-59
2023/08/24 00:12:39;;;;;;;;;10.00;10.00;;;;;;;;5094718;28;9182;-59
2023/08/24 00:15:04;;;;;;;;;13.67;13.67;;;;;;;;5094311;28;8922;-59
2023/08/24 00:17:29;;;;;;;;;13.67;12.00;;;;;;;;5093989;28;11495;-59
2023/08/24 00:19:55;;;;;;;;;14.00;14.00;;;;;;;;5094467;28;8850;-59
2023/08/24 00:22:20;;;;;;;;;11.00;11.00;;;;;;;;5094517;28;9692;-59
2023/08/24 00:24:45;;;;;;;;;10.67;10.67;;;;;;;;5094067;28;8814;-59
2023/08/24 00:27:10;;;;;;;;;12.67;12.00;;;;;;;;5094591;28;8795;-59
2023/08/24 00:29:35;;;;;;;;;11.33;11.33;;;;;;;;5094443;28;8915;-59
2023/08/24 00:32:00;;;;;;;;;9.00;9.00;;;;;;;;5094330;28;8779;-59
2023/08/24 00:34:26;;;;;;;;;10.33;9.33;;;;;;;;5094223;28;9518;-59
2023/08/24 00:36:51;;;;;;;;;8.33;8.33;;;;;;;;5094455;28;8905;-57
2023/08/24 00:39:16;;;;;;;;;9.00;9.00;;;;;;;;5076494;28;9476;-59
2023/08/24 00:41:41;;;;;;;;;10.00;10.00;;;;;;;;5093652;28;8807;-58
2023/08/24 00:44:07;;;;;;;;;9.33;9.00;;;;;;;;5093963;28;8866;-58
2023/08/24 00:46:32;;;;;;;;;9.33;9.00;;;;;;;;5087806;28;8905;-58
2023/08/24 00:48:58;;;;;;;;;8.33;6.33;;;;;;;;5093813;28;8974;-59
2023/08/24 00:51:24;;;;;;;;;9.33;9.33;;;;;;;;5094110;28;8799;-58
2023/08/24 00:53:49;;;;;;;;;9.00;8.33;;;;;;;;5093818;28;9620;-58
2023/08/24 00:56:15;;;;;;;;;8.67;8.67;;;;;;;;5093532;28;9403;-58
2023/08/24 00:58:40;;;;;;;;;8.00;8.00;;;;;;;;5093719;28;8919;-58
2023/08/24 01:01:05;;;;;;;;;8.00;7.33;;;;;;;;5093729;28;8818;-58
2023/08/24 01:03:30;;;;;;;;;8.00;8.00;;;;;;;;5093869;28;8887;-58
2023/08/24 01:05:56;;;;;;;;;9.33;9.33;;;;;;;;5093568;28;8807;-58
2023/08/24 01:08:21;;;;;;;;;9.67;9.67;;;;;;;;5094020;28;8845;-60
2023/08/24 01:10:55;;;;;;;;;9.00;8.00;;;;;;;;5093317;28;8891;-59
2023/08/24 01:13:23;;;;;;;;;9.67;9.67;;;;;;;;5093807;28;8813;-59
2023/08/24 01:15:51;;;;;;;;;7.67;7.67;;;;;;;;5093489;28;8948;-59
2023/08/24 01:18:19;;;;;;;;;8.00;8.00;;;;;;;;5093537;28;8987;-59
2023/08/24 01:20:44;;;;;;;;;9.67;9.67;;;;;;;;5093463;28;9137;-60
2023/08/24 01:23:21;;;;;;;;;10.00;10.00;;;;;;;;5092502;28;9046;-60
2023/08/24 01:25:54;;;;;;;;;9.00;9.00;;;;;;;;5093164;28;8791;-59
2023/08/24 01:28:22;;;;;;;;;8.33;8.00;;;;;;;;5093173;28;8959;-58
2023/08/24 01:30:48;;;;;;;;;10.00;10.00;;;;;;;;5093209;28;8849;-60
2023/08/24 01:33:14;;;;;;;;;8.33;8.33;;;;;;;;5092979;28;9081;-60
2023/08/24 01:35:39;;;;;;;;;11.67;11.33;;;;;;;;5093063;28;8829;-58
2023/08/24 01:38:06;;;;;;;;;9.00;9.00;;;;;;;;5093140;28;8917;-60
2023/08/24 01:40:49;;;;;;;;;11.00;11.00;;;;;;;;5092838;28;8868;-60
2023/08/24 01:43:15;;;;;;;;;9.00;9.00;;;;;;;;5092879;28;9059;-59
2023/08/24 01:45:41;;;;;;;;;10.00;9.33;;;;;;;;5091307;28;8889;-60
2023/08/24 01:48:07;;;;;;;;;8.67;7.67;;;;;;;;5092241;28;8783;-59
2023/08/24 01:50:33;;;;;;;;;10.00;10.00;;;;;;;;5093042;28;9124;-58
2023/08/24 01:52:59;;;;;;;;;7.00;7.00;;;;;;;;5092853;28;9143;-59
2023/08/24 01:55:24;;;;;;;;;10.67;10.00;;;;;;;;5092651;28;8810;-58
2023/08/24 01:57:49;;;;;;;;;8.33;8.33;;;;;;;;5092548;28;8811;-58
2023/08/24 02:00:15;;;;;;;;;8.67;8.67;;;;;;;;5092834;28;8819;-58
2023/08/24 02:02:41;;;;;;;;;8.67;8.67;;;;;;;;5074339;28;9141;-58
2023/08/24 02:05:07;;;;;;;;;8.67;8.33;;;;;;;;5092742;28;8805;-58
2023/08/24 02:07:33;;;;;;;;;9.67;9.67;;;;;;;;5092275;28;9853;-58
2023/08/24 02:09:58;;;;;;;;;7.00;7.00;;;;;;;;5092482;28;8963;-58
2023/08/24 02:12:23;;;;;;;;;11.33;10.00;;;;;;;;5091205;28;8945;-58
2023/08/24 02:14:48;;;;;;;;;10.00;10.00;;;;;;;;5092621;28;8815;-58
2023/08/24 02:17:14;;;;;;;;;12.00;9.67;;;;;;;;5092451;28;8815;-58
2023/08/24 02:19:39;;;;;;;;;11.00;9.33;;;;;;;;5092476;28;8790;-59
2023/08/24 02:22:04;;;;;;;;;12.00;10.67;;;;;;;;5092391;28;8834;-58
2023/08/24 02:24:29;;;;;;;;;10.33;10.33;;;;;;;;5090917;28;8806;-59
2023/08/24 02:26:54;;;;;;;;;9.33;9.00;;;;;;;;5092344;28;8818;-59
2023/08/24 02:29:20;;;;;;;;;11.33;10.00;;;;;;;;5092536;28;8798;-59
2023/08/24 02:31:45;;;;;;;;;9.67;9.67;;;;;;;;5092179;28;8953;-59
2023/08/24 02:34:10;;;;;;;;;10.00;9.67;;;;;;;;5092168;28;8833;-59
2023/08/24 02:36:36;;;;;;;;;11.00;10.00;;;;;;;;5092542;28;9629;-59
2023/08/24 02:39:01;;;;;;;;;9.33;9.33;;;;;;;;5092434;28;8851;-60
2023/08/24 02:41:26;;;;;;;;;9.00;8.33;;;;;;;;5091920;28;8833;-59
2023/08/24 02:43:52;;;;;;;;;11.33;11.33;;;;;;;;5092069;28;8795;-59
2023/08/24 02:46:18;;;;;;;;;9.00;9.00;;;;;;;;5092058;28;8837;-59
2023/08/24 02:48:44;;;;;;;;;11.67;11.00;;;;;;;;5085800;28;8871;-59
2023/08/24 02:51:10;;;;;;;;;11.67;10.67;;;;;;;;5091970;28;9123;-58
2023/08/24 02:53:35;;;;;;;;;9.67;9.67;;;;;;;;5091912;28;8787;-58
2023/08/24 02:56:00;;;;;;;;;10.33;10.33;;;;;;;;5091825;28;11447;-58
2023/08/24 02:58:26;;;;;;;;;9.00;9.00;;;;;;;;5091752;28;8873;-58
2023/08/24 03:00:52;;;;;;;;;10.33;10.00;;;;;;;;5091979;28;8845;-58
2023/08/24 03:03:17;;;;;;;;;9.00;9.00;;;;;;;;5091888;28;9122;-58
2023/08/24 03:05:58;;;;;;;;;9.33;9.33;;;;;;;;5091780;28;8791;-58
2023/08/24 03:08:23;;;;;;;;;9.33;9.33;;;;;;;;5091741;28;8783;-58
2023/08/24 03:10:49;;;;;;;;;10.00;10.00;;;;;;;;5091752;28;9343;-58
2023/08/24 03:13:14;;;;;;;;;11.33;11.33;;;;;;;;5091734;28;8815;-59
2023/08/24 03:15:39;;;;;;;;;11.67;10.67;;;;;;;;5091819;28;8832;-60
2023/08/24 03:18:04;;;;;;;;;10.67;10.00;;;;;;;;5091355;28;8827;-59
2023/08/24 03:20:30;;;;;;;;;12.67;11.00;;;;;;;;5089126;28;8895;-59
2023/08/24 03:22:55;;;;;;;;;10.00;9.00;;;;;;;;5091526;28;8826;-59
2023/08/24 03:25:21;;;;;;;;;10.33;10.00;;;;;;;;5090101;28;8811;-59
2023/08/24 03:27:47;;;;;;;;;11.33;10.33;;;;;;;;5091407;28;8913;-59
2023/08/24 03:30:12;;;;;;;;;10.33;10.33;;;;;;;;5091363;28;8831;-59
2023/08/24 03:32:39;;;;;;;;;11.33;11.00;;;;;;;;5091155;28;9133;-59
2023/08/24 03:35:04;;;;;;;;;10.33;10.33;;;;;;;;5091233;28;8803;-59
2023/08/24 03:37:29;;;;;;;;;10.33;10.00;;;;;;;;5091318;28;9059;-59
2023/08/24 03:39:55;;;;;;;;;8.33;8.33;;;;;;;;5072936;28;10420;-59
2023/08/24 03:42:20;;;;;;;;;10.67;10.33;;;;;;;;5091363;28;8909;-59
2023/08/24 03:44:45;;;;;;;;;10.00;10.00;;;;;;;;5089788;28;8823;-60
2023/08/24 03:47:10;;;;;;;;;12.33;11.00;;;;;;;;5088944;28;8927;-60
2023/08/24 03:49:35;;;;;;;;;10.00;10.00;;;;;;;;5091121;28;8827;-59
2023/08/24 03:52:01;;;;;;;;;10.00;9.00;;;;;;;;5091323;28;8823;-60
2023/08/24 03:54:27;;;;;;;;;10.67;10.67;;;;;;;;5090769;28;8795;-59
2023/08/24 03:56:52;;;;;;;;;12.00;11.00;;;;;;;;5091171;28;8771;-60
2023/08/24 03:59:17;;;;;;;;;10.33;10.33;;;;;;;;5090660;28;9132;-60
2023/08/24 04:01:42;;;;;;;;;10.00;10.00;;;;;;;;5091193;28;8794;-60
2023/08/24 04:04:08;;;;;;;;;13.00;13.00;;;;;;;;5090660;28;8836;-60
2023/08/24 04:06:33;;;;;;;;;9.33;9.33;;;;;;;;5091003;28;8806;-59
2023/08/24 04:08:58;;;;;;;;;10.00;9.33;;;;;;;;5090761;28;8949;-59
2023/08/24 04:11:23;;;;;;;;;11.67;11.00;;;;;;;;5090898;28;8993;-59
2023/08/24 04:13:48;;;;;;;;;9.33;9.33;;;;;;;;5090765;28;8810;-59
2023/08/24 04:16:14;;;;;;;;;10.00;10.00;;;;;;;;5091025;28;9537;-59
2023/08/24 04:18:40;;;;;;;;;10.00;10.00;;;;;;;;5090475;28;8953;-59
2023/08/24 04:21:05;;;;;;;;;11.00;11.00;;;;;;;;5090859;28;8775;-59
2023/08/24 04:23:30;;;;;;;;;11.00;11.00;;;;;;;;5090629;28;9272;-59
2023/08/24 04:25:56;;;;;;;;;10.33;10.33;;;;;;;;5089419;28;8868;-59
2023/08/24 04:28:21;;;;;;;;;12.00;9.67;;;;;;;;5089330;28;8819;-59
2023/08/24 04:30:50;;;;;;;;;11.00;11.00;;;;;;;;5090732;28;8848;-59
2023/08/24 04:33:15;;;;;;;;;10.00;9.33;;;;;;;;5093883;28;8803;-59
2023/08/24 04:35:40;;;;;;;;;10.33;10.00;;;;;;;;5094049;28;8982;-59
2023/08/24 04:38:05;;;;;;;;;12.33;12.33;;;;;;;;5094043;28;8992;-61
2023/08/24 04:40:43;;;;;;;;;11.00;11.00;;;;;;;;5093977;28;8791;-59
2023/08/24 04:43:09;;;;;;;;;11.00;10.67;;;;;;;;5093954;28;8775;-59
2023/08/24 04:45:34;;;;;;;;;10.33;10.33;;;;;;;;5094107;28;9270;-59
2023/08/24 04:48:01;;;;;;;;;12.00;11.67;;;;;;;;5090161;28;8937;-58
2023/08/24 04:50:26;;;;;;;;;11.00;11.00;;;;;;;;5081115;28;8783;-59
2023/08/24 04:52:51;;;;;;;;;12.00;11.33;;;;;;;;5093628;28;9153;-59
2023/08/24 04:55:16;;;;;;;;;10.00;10.00;;;;;;;;5093594;28;8881;-60
2023/08/24 04:57:42;;;;;;;;;12.00;11.00;;;;;;;;5093807;28;8965;-57
2023/08/24 05:00:07;;;;;;;;;10.67;10.00;;;;;;;;5093569;28;8839;-59
2023/08/24 05:02:32;;;;;;;;;11.33;11.33;;;;;;;;5093579;28;9659;-58
2023/08/24 05:04:57;;;;;;;;;10.33;10.33;;;;;;;;5093916;28;8790;-60
2023/08/24 05:07:23;;;;;;;;;11.00;10.00;;;;;;;;5093560;28;8905;-58
2023/08/24 05:09:48;;;;;;;;;11.67;10.67;;;;;;;;5093508;28;8787;-58
2023/08/24 05:12:13;;;;;;;;;10.67;10.67;;;;;;;;5093412;28;9580;-60
2023/08/24 05:14:38;;;;;;;;;12.00;11.00;;;;;;;;5093886;28;8872;-60
2023/08/24 05:17:04;;;;;;;;;12.00;12.00;;;;;;;;5093448;28;8807;-58
2023/08/24 05:19:30;;;;;;;;;12.33;12.33;;;;;;;;5093752;28;8907;-60
2023/08/24 05:21:55;;;;;;;;;12.00;11.00;;;;;;;;5093314;28;9356;-59
2023/08/24 05:24:20;;;;;;;;;13.33;13.33;;;;;;;;5093054;28;8827;-59
2023/08/24 05:26:45;;;;;;;;;11.33;11.33;;;;;;;;5075070;28;8916;-59
2023/08/24 05:29:10;;;;;;;;;10.00;10.00;;;;;;;;5093054;28;8833;-59
2023/08/24 05:31:36;;;;;;;;;12.00;12.00;;;;;;;;5074694;28;8834;-59
2023/08/24 05:34:01;;;;;;;;;13.00;11.67;;;;;;;;5085104;28;9538;-59
2023/08/24 05:36:26;;;;;;;;;13.67;13.00;;;;;;;;5093024;28;8803;-59
2023/08/24 05:38:55;;;;;;;;;9.67;9.33;;;;;;;;5092984;28;8823;-60
2023/08/24 05:41:20;;;;;;;;;12.67;12.67;;;;;;;;5092732;28;8795;-59
2023/08/24 05:43:46;;;;;;;;;14.00;13.00;;;;;;;;5092433;28;9374;-59
2023/08/24 05:46:11;;;;;;;;;10.67;10.00;;;;;;;;5092081;28;8913;-59
2023/08/24 05:48:36;;;;;;;;;10.33;10.00;;;;;;;;5093042;28;8838;-59
2023/08/24 05:51:01;;;;;;;;;9.00;9.00;;;;;;;;5092582;28;8823;-59
2023/08/24 05:53:26;;;;;;;;;12.67;12.33;;;;;;;;5092866;28;8807;-59
2023/08/24 05:55:56;;;;;;;;;11.67;11.00;;;;;;;;5092526;28;8818;-59
2023/08/24 05:58:22;;;;;;;;;13.33;12.67;;;;;;;;5092388;28;9580;-60
2023/08/24 06:00:48;;;;;;;;;13.00;12.33;;;;;;;;5085374;28;9135;-59
2023/08/24 06:03:13;;;;;;;;;12.33;12.33;;;;;;;;5089931;28;8838;-60
2023/08/24 06:05:38;;;;;;;;;10.00;9.00;;;;;;;;5091011;28;8787;-59
2023/08/24 06:08:04;;;;;;;;;11.00;10.67;;;;;;;;5091976;28;8827;-63
2023/08/24 06:10:30;;;;;;;;;14.00;14.00;;;;;;;;5098522;28;8807;-59
2023/08/24 06:12:56;;;;;;;;;11.00;10.33;;;;;;;;5092178;28;8795;-60
2023/08/24 06:15:24;;;;;;;;;11.33;10.00;;;;;;;;5092372;28;9291;-60
2023/08/24 06:17:49;;;;;;;;;9.67;9.67;;;;;;;;5092411;28;8817;-60
2023/08/24 06:20:15;;;;;;;;;12.33;12.33;;;;;;;;5090839;28;9212;-60
2023/08/24 06:22:40;;;;;;;;;12.33;11.33;;;;;;;;5092322;28;8826;-59
2023/08/24 06:25:08;;;;;;;;;13.00;12.00;;;;;;;;5091739;28;8872;-59
2023/08/24 06:27:33;;;;;;;;;13.00;12.33;;;;;;;;5092145;28;8936;-59
2023/08/24 06:29:58;;;;;;;;;12.33;12.33;;;;;;;;5092118;28;8987;-59
2023/08/24 06:32:24;;;;;;;;;12.67;12.67;;;;;;;;5091647;28;8830;-59
2023/08/24 06:34:49;;;;;;;;;13.00;12.00;;;;;;;;5092024;28;8864;-59
2023/08/24 06:37:14;;;;;;;;;11.33;11.33;;;;;;;;5092327;28;8891;-59
2023/08/24 06:39:39;;;;;;;;;10.67;10.67;;;;;;;;5091392;28;8818;-62
2023/08/24 06:42:05;;;;;;;;;10.67;9.67;;;;;;;;5092049;28;8818;-60
2023/08/24 06:44:30;;;;;;;;;10.33;10.00;;;;;;;;5091643;28;8806;-59
2023/08/24 06:46:56;;;;;;;;;9.33;9.33;;;;;;;;5087468;28;8839;-59
2023/08/24 06:49:21;;;;;;;;;11.67;11.67;;;;;;;;5091597;28;8843;-60
2023/08/24 06:51:46;;;;;;;;;11.33;10.67;;;;;;;;5091658;28;9584;-59
2023/08/24 06:54:11;;;;;;;;;11.00;10.67;;;;;;;;5090974;28;8842;-59
2023/08/24 06:56:37;;;;;;;;;13.33;12.33;;;;;;;;5091613;28;8818;-59
2023/08/24 06:59:02;;;;;;;;;13.00;12.67;;;;;;;;5090963;28;8890;-59
2023/08/24 07:01:27;;;;;;;;;11.33;11.33;;;;;;;;5091437;28;8868;-58
2023/08/24 07:03:52;;;;;;;;;11.67;10.67;;;;;;;;5091429;28;8855;-58
2023/08/24 07:06:17;;;;;;;;;13.00;13.00;;;;;;;;5091343;28;8803;-59
2023/08/24 07:08:43;;;;;;;;;12.67;12.67;;;;;;;;5095676;28;9579;-60
2023/08/24 07:11:08;;;;;;;;;13.00;13.00;;;;;;;;5091348;28;8810;-59
2023/08/24 07:13:34;;;;;;;;;11.00;11.00;;;;;;;;5091148;28;8948;-59
2023/08/24 07:15:59;;;;;;;;;13.00;12.33;;;;;;;;5072950;28;8802;-59
2023/08/24 07:18:25;;;;;;;;;13.33;13.33;;;;;;;;5091184;28;9308;-60
2023/08/24 07:20:50;;;;;;;;;12.00;12.00;;;;;;;;5091025;28;8803;-59
2023/08/24 07:23:15;;;;;;;;;13.00;12.33;;;;;;;;5091074;28;8847;-59
2023/08/24 07:25:41;;;;;;;;;13.00;13.00;;;;;;;;5090710;28;9548;-59
2023/08/24 07:28:07;;;;;;;;;13.00;12.00;;;;;;;;5091182;28;8826;-59
2023/08/24 07:30:32;;;;;;;;;12.33;12.33;;;;;;;;5090807;28;8830;-59
2023/08/24 07:32:57;;;;;;;;;13.00;12.00;;;;;;;;5091110;28;8818;-59
2023/08/24 07:35:24;;;;;;;;;10.00;10.00;;;;;;;;5090939;28;9642;-59
2023/08/24 07:37:50;;;;;;;;;12.33;10.67;;;;;;;;5091005;28;8818;-59
2023/08/24 07:40:15;;;;;;;;;11.67;11.67;;;;;;;;5090628;28;9389;-59
2023/08/24 07:42:45;;;;;;;;;12.67;12.67;;;;;;;;5090849;28;8949;-59
2023/08/24 07:45:11;;;;;;;;;13.67;12.00;;;;;;;;5090535;28;8802;-59
2023/08/24 07:47:36;;;;;;;;;13.67;13.67;;;;;;;;5072247;28;9171;-59
2023/08/24 07:50:01;;;;;;;;;11.33;11.00;;;;;;;;5090513;28;8811;-58
2023/08/24 07:52:28;;;;;;;;;12.00;11.67;;;;;;;;5090783;28;8787;-59
2023/08/24 07:54:54;;;;;;;;;11.00;11.00;;;;;;;;5090315;28;8825;-58
2023/08/24 07:57:19;;;;;;;;;12.00;12.00;;;;;;;;5090816;28;9052;-59
2023/08/24 07:59:45;;;;;;;;;12.00;12.00;;;;;;;;5090126;28;8819;-58
2023/08/24 08:02:10;;;;;;;;;11.67;11.33;;;;;;;;5090346;28;8850;-58
2023/08/24 08:04:35;;;;;;;;;14.67;14.00;;;;;;;;5090647;28;8822;-58
2023/08/24 08:07:00;;;;;;;;;15.00;13.33;;;;;;;;5092390;28;8857;-59
2023/08/24 08:09:26;;;;;;;;;13.33;12.33;;;;;;;;5093980;28;8861;-59
2023/08/24 08:11:51;;;;;;;;;14.33;13.33;;;;;;;;5088411;28;8836;-59
2023/08/24 08:14:16;;;;;;;;;12.67;12.00;;;;;;;;5093872;28;8932;-59
2023/08/24 08:16:42;;;;;;;;;12.00;11.33;;;;;;;;5094360;28;9557;-60
2023/08/24 08:19:07;;;;;;;;;11.33;11.33;;;;;;;;5094130;28;8835;-60
2023/08/24 08:21:32;;;;;;;;;10.67;10.67;;;;;;;;5094162;28;8822;-60
2023/08/24 08:23:57;;;;;;;;;13.67;13.00;;;;;;;;5093732;28;8853;-60
2023/08/24 08:26:22;;;;;;;;;12.00;12.00;;;;;;;;5094089;28;8857;-60
2023/08/24 08:28:48;;;;;;;;;13.00;13.00;;;;;;;;5094024;28;8892;-60
2023/08/24 08:31:13;;;;;;;;;10.67;10.67;;;;;;;;5093793;28;10669;-59
2023/08/24 08:33:38;;;;;;;;;11.00;11.00;;;;;;;;5093771;28;8810;-59
2023/08/24 08:36:04;;;;;;;;;11.00;11.00;;;;;;;;5093968;28;8791;-58
2023/08/24 08:38:29;;;;;;;;;10.33;10.33;;;;;;;;5092395;28;8822;-59
2023/08/24 08:40:55;;;;;;;;;11.67;11.00;;;;;;;;5075304;28;9222;-59
2023/08/24 08:43:21;;;;;;;;;10.67;10.67;;;;;;;;5093667;28;9601;-60
2023/08/24 08:45:48;;;;;;;;;13.33;11.67;;;;;;;;5089380;28;9154;-60
2023/08/24 08:48:13;;;;;;;;;11.67;11.67;;;;;;;;5089787;28;8895;-60
2023/08/24 08:50:39;;;;;;;;;11.67;11.00;;;;;;;;5093434;28;9505;-60
2023/08/24 08:53:04;;;;;;;;;11.00;11.00;;;;;;;;5093190;28;10209;-60
2023/08/24 08:55:30;;;;;;;;;11.33;10.67;;;;;;;;5093018;28;8783;-60
2023/08/24 08:58:01;;;;;;;;;13.00;13.00;;;;;;;;5093151;28;8798;-59
2023/08/24 09:00:27;;;;;;;;;12.00;12.00;;;;;;;;5093267;28;9297;-59
2023/08/24 09:02:53;;;;;;;;;14.67;13.00;;;;;;;;5093047;28;9197;-60
2023/08/24 09:05:19;;;;;;;;;14.00;13.00;;;;;;;;5093130;28;9169;-60
2023/08/24 09:07:47;;;;;;;;;12.33;12.33;;;;;;;;5093289;28;8944;-58
2023/08/24 09:10:12;;;;;;;;;12.00;12.00;;;;;;;;5092949;28;9420;-60
2023/08/24 09:12:37;;;;;;;;;7.00;7.00;;;;;;;;5092751;28;9446;-58
2023/08/24 09:15:04;;;;;;;;;12.00;12.00;;;;;;;;5093114;28;8813;-59
2023/08/24 09:17:29;;;;;;;;;12.00;12.00;;;;;;;;5091748;28;8775;-58
2023/08/24 09:19:58;;;;;;;;;13.67;12.00;;;;;;;;5092747;28;9415;-59
2023/08/24 09:22:24;;;;;;;;;16.67;15.67;;;;;;;;5092788;28;8774;-58
2023/08/24 09:24:50;;;;;;;;;13.00;13.00;;;;;;;;5092409;28;9191;-58
2023/08/24 09:27:19;;;;;;;;;13.67;13.00;;;;;;;;5092649;28;8763;-58
2023/08/24 09:29:53;;;;;;;;;12.00;11.33;;;;;;;;5092389;28;9348;-60
2023/08/24 09:32:27;;;;;;;;;10.33;10.00;;;;;;;;5092616;28;9119;-60
2023/08/24 09:34:52;;;;;;;;;14.33;13.00;;;;;;;;5092579;28;9116;-59
2023/08/24 09:37:17;;;;;;;;;13.00;12.00;;;;;;;;5092896;28;9202;-59
2023/08/24 09:39:44;;;;;;;;;11.00;11.00;;;;;;;;5092269;28;8842;-59
2023/08/24 09:42:09;;;;;;;;;11.67;10.67;;;;;;;;5092175;28;8779;-59
2023/08/24 09:44:34;;;;;;;;;11.00;10.00;;;;;;;;5092265;28;9335;-59
2023/08/24 09:46:59;;;;;;;;;13.00;13.00;;;;;;;;5092089;28;8795;-59
2023/08/24 09:49:26;;;;;;;;;14.67;14.00;;;;;;;;5092244;28;8802;-60
2023/08/24 09:51:55;;;;;;;;;11.67;11.67;;;;;;;;5091994;28;8918;-59
2023/08/24 09:54:21;;;;;;;;;12.67;12.00;;;;;;;;5091378;28;9208;-58
2023/08/24 09:56:48;;;;;;;;;12.00;12.00;;;;;;;;5091976;28;9234;-59
2023/08/24 09:59:17;;;;;;;;;12.00;11.00;;;;;;;;5091832;28;9208;-59
2023/08/24 10:01:43;;;;;;;;;11.33;10.67;;;;;;;;5091763;28;9206;-59
2023/08/24 10:04:10;;;;;;;;;11.67;11.33;;;;;;;;5091815;28;9193;-58
2023/08/24 10:06:36;;;;;;;;;10.00;9.33;;;;;;;;5073785;28;10836;-60
2023/08/24 10:09:04;;;;;;;;;10.00;10.00;;;;;;;;5091873;28;9263;-59
2023/08/24 10:11:30;;;;;;;;;10.00;9.67;;;;;;;;5091929;28;9340;-59
2023/08/24 10:14:22;;;;;;;;;9.67;9.67;;;;;;;;5075898;28;9513;-59
2023/08/24 10:16:48;;;;;;;;;10.00;10.00;;;;;;;;5087577;28;9251;-59
2023/08/24 10:19:13;;;;;;;;;10.33;10.33;;;;;;;;5091481;28;9304;-59
2023/08/24 10:21:39;;;;;;;;;12.33;12.00;;;;;;;;5091709;28;9443;-59
2023/08/24 10:24:05;;;;;;;;;11.00;11.00;;;;;;;;5091638;28;8813;-60
2023/08/24 10:26:30;;;;;;;;;14.33;13.33;;;;;;;;5091496;28;8794;-59
2023/08/24 10:28:57;;;;;;;;;13.33;13.33;;;;;;;;5091180;28;8803;-59
2023/08/24 10:31:22;;;;;;;;;14.00;14.00;;;;;;;;5091444;28;9671;-59
2023/08/24 10:33:48;;;;;;;;;13.00;13.00;;;;;;;;5091115;28;9428;-59
2023/08/24 10:36:14;;;;;;;;;11.00;11.00;;;;;;;;5091092;28;8791;-59
2023/08/24 10:38:43;;;;;;;;;11.33;10.33;;;;;;;;5091002;28;9316;-58
2023/08/24 10:41:09;;;;;;;;;10.67;10.67;;;;;;;;5090795;28;8791;-59
2023/08/24 10:43:37;;;;;;;;;15.33;12.33;;;;;;;;5091571;28;9265;-59
2023/08/24 10:46:06;;;;;;;;;14.67;13.00;;;;;;;;5085715;28;9692;-61
2023/08/24 10:48:51;;;;;;;;;12.00;12.00;;;;;;;;5080575;28;9424;-63
2023/08/24 10:51:19;;;;;;;;;11.00;10.00;;;;;;;;5090948;28;9344;-58
2023/08/24 10:53:45;;;;;;;;;14.00;13.33;;;;;;;;5091016;28;10070;-60
2023/08/24 10:56:11;;;;;;;;;11.00;11.00;;;;;;;;5090497;28;9461;-59
2023/08/24 10:58:37;;;;;;;;;13.00;13.00;;;;;;;;5090719;28;9424;-60
2023/08/24 11:01:02;;;;;;;;;16.00;15.00;;;;;;;;5090854;28;9381;-60
2023/08/24 11:03:34;;;;;;;;;15.00;14.00;;;;;;;;5090394;28;8819;-59
2023/08/24 11:05:59;;;;;;;;;14.33;13.00;;;;;;;;5090879;28;8763;-60
2023/08/24 11:08:43;;;;;;;;;14.00;14.00;;;;;;;;5090664;28;9405;-59
2023/08/24 11:11:22;;;;;;;;;13.00;13.00;;;;;;;;5090223;28;8821;-59
2023/08/24 11:14:06;;;;;;;;;13.67;11.67;;;;;;;;5072455;28;9502;-59
2023/08/24 11:16:41;;;;;;;;;14.33;13.33;;;;;;;;5090660;28;9277;-59
2023/08/24 11:19:07;;;;;;;;;11.00;11.00;;;;;;;;5090700;28;9372;-59
2023/08/24 11:21:33;;;;;;;;;12.67;12.33;;;;;;;;5090579;28;9224;-59
2023/08/24 11:23:59;;;;;;;;;11.33;11.33;;;;;;;;5090217;28;8779;-60
2023/08/24 11:26:25;;;;;;;;;9.33;9.33;;;;;;;;5090733;28;10053;-59
2023/08/24 11:28:53;;;;;;;;;10.33;9.67;;;;;;;;5090538;28;9558;-59
2023/08/24 11:31:18;;;;;;;;;9.33;9.00;;;;;;;;5090486;28;10017;-59
2023/08/24 11:33:44;;;;;;;;;9.33;9.33;;;;;;;;5090617;28;9161;-59
2023/08/24 11:36:09;;;;;;;;;6.67;6.67;;;;;;;;5090467;28;8815;-59
2023/08/24 11:39:02;;;;;;;;;;;;;;;;;;4040319;28;58155236;-59
2023/08/24 11:41:27;;;;;;;;;8.00;8.00;;;;;;;;5048081;28;51010;-59
2023/08/24 11:44:00;;;;;;;;;5.67;5.67;;;;;;;;5052609;28;50946;-59
2023/08/24 11:46:27;;;;;;;;;7.33;7.33;;;;;;;;5052088;28;51238;-59
2023/08/24 11:48:52;;;;;;;;;9.33;8.67;;;;;;;;5051915;28;51120;-59
2023/08/24 11:51:18;;;;;;;;;10.00;9.00;;;;;;;;5051741;28;51086;-58
2023/08/24 11:53:44;;;;;;;;;8.33;8.33;;;;;;;;5051933;28;51021;-59
2023/08/24 11:56:10;;;;;;;;;9.67;9.33;;;;;;;;5051897;28;51430;-58
2023/08/24 11:58:42;;;;;;;;;9.33;9.00;;;;;;;;5051613;28;51723;-60
2023/08/24 12:01:08;;;;;;;;;8.33;8.33;;;;;;;;5051575;28;51034;-60
2023/08/24 12:03:34;;;;;;;;;7.33;7.00;;;;;;;;5051939;28;51099;-59
2023/08/24 12:06:09;;;;;;;;;6.67;6.67;;;;;;;;5052022;28;51397;-59
2023/08/24 12:08:37;;;;;;;;;9.00;8.33;;;;;;;;5051828;28;52745;-60
2023/08/24 12:11:02;;;;;;;;;8.33;8.00;;;;;;;;5051449;28;51109;-59
2023/08/24 12:13:32;;;;;;;;;8.67;8.67;;;;;;;;5043609;28;51219;-59
2023/08/24 12:16:00;;;;;;;;;6.67;6.33;;;;;;;;5050846;28;51015;-58
2023/08/24 12:18:25;;;;;;;;;7.00;7.00;;;;;;;;5050923;28;52210;-59
2023/08/24 12:20:51;;;;;;;;;7.33;7.00;;;;;;;;5051340;28;50974;-59
2023/08/24 12:23:16;;;;;;;;;10.00;8.00;;;;;;;;5051873;28;51010;-59
2023/08/24 12:25:44;;;;;;;;;6.33;6.33;;;;;;;;5051575;28;51297;-58
2023/08/24 12:28:11;;;;;;;;;8.33;8.33;;;;;;;;5051380;28;50929;-58
2023/08/24 12:30:45;;;;;;;;;7.00;7.00;;;;;;;;5049783;28;51012;-59
2023/08/24 12:33:20;;;;;;;;;6.33;6.33;;;;;;;;5051641;28;51201;-59
2023/08/24 12:35:46;;;;;;;;;6.67;6.00;;;;;;;;5051327;28;50988;-58
2023/08/24 12:38:11;;;;;;;;;7.00;7.00;;;;;;;;5050840;28;50866;-58
2023/08/24 12:40:37;;;;;;;;;8.00;8.00;;;;;;;;5050985;28;51023;-59
2023/08/24 12:43:02;;;;;;;;;7.67;7.67;;;;;;;;5051489;28;50948;-60
2023/08/24 12:45:27;;;;;;;;;7.67;7.67;;;;;;;;5050263;28;51321;-59
2023/08/24 12:47:52;;;;;;;;;7.33;7.33;;;;;;;;5040553;28;52781;-60
2023/08/24 12:50:17;;;;;;;;;7.33;7.33;;;;;;;;5051127;28;51276;-59
2023/08/24 12:52:43;;;;;;;;;7.67;7.67;;;;;;;;5043062;28;51192;-60
2023/08/24 12:55:08;;;;;;;;;7.67;7.67;;;;;;;;5050704;28;51316;-60
2023/08/24 12:57:34;;;;;;;;;9.67;9.67;;;;;;;;5054185;28;50978;-59
2023/08/24 12:59:59;;;;;;;;;9.00;8.67;;;;;;;;5054204;28;51050;-60
2023/08/24 13:02:24;;;;;;;;;9.67;8.00;;;;;;;;5054243;28;51067;-60
2023/08/24 13:04:49;;;;;;;;;9.33;8.00;;;;;;;;5054685;28;51164;-58
2023/08/24 13:07:14;;;;;;;;;7.00;7.00;;;;;;;;5053994;28;51014;-59
2023/08/24 13:09:40;;;;;;;;;9.00;9.00;;;;;;;;5054063;28;51042;-59
2023/08/24 13:12:05;;;;;;;;;8.33;8.00;;;;;;;;5054215;28;51099;-60
2023/08/24 13:14:30;;;;;;;;;10.33;8.00;;;;;;;;5054169;28;51012;-59
2023/08/24 13:16:56;;;;;;;;;8.67;8.67;;;;;;;;5054103;28;51540;-59
2023/08/24 13:19:21;;;;;;;;;14.33;12.67;;;;;;;;5053843;28;51022;-59
2023/08/24 13:21:46;;;;;;;;;10.00;10.00;;;;;;;;5053927;28;51242;-59
2023/08/24 13:24:11;;;;;;;;;9.33;9.00;;;;;;;;5053908;28;51008;-58
2023/08/24 13:26:36;;;;;;;;;11.00;11.00;;;;;;;;5053533;28;51010;-59
2023/08/24 13:29:02;;;;;;;;;11.33;10.33;;;;;;;;5054041;28;50928;-60
2023/08/24 13:31:29;;;;;;;;;12.00;11.33;;;;;;;;5054035;28;51117;-59
2023/08/24 13:33:55;;;;;;;;;11.00;11.00;;;;;;;;5053724;28;50959;-59
2023/08/24 13:36:20;;;;;;;;;12.33;12.00;;;;;;;;5053252;28;51256;-60
2023/08/24 13:38:45;;;;;;;;;11.00;10.00;;;;;;;;5053519;28;51056;-60
2023/08/24 13:41:10;;;;;;;;;11.33;11.33;;;;;;;;5053093;28;51010;-59
2023/08/24 13:43:35;;;;;;;;;11.67;11.67;;;;;;;;5053884;28;51047;-59
2023/08/24 13:46:01;;;;;;;;;13.67;13.00;;;;;;;;5053330;28;50928;-60
2023/08/24 13:48:27;;;;;;;;;15.00;13.67;;;;;;;;5053306;28;51040;-59
2023/08/24 13:50:52;;;;;;;;;14.00;13.00;;;;;;;;5053464;28;50909;-59
2023/08/24 13:53:18;;;;;;;;;14.00;12.33;;;;;;;;5050881;28;51219;-59
2023/08/24 13:55:43;;;;;;;;;12.33;12.33;;;;;;;;5052834;28;52192;-58
2023/08/24 13:58:08;;;;;;;;;13.33;13.33;;;;;;;;5035018;28;51130;-59
2023/08/24 14:00:34;;;;;;;;;14.33;14.00;;;;;;;;5052843;28;51133;-59
2023/08/24 14:02:59;;;;;;;;;11.33;11.33;;;;;;;;5053412;28;51003;-59
2023/08/24 14:05:24;;;;;;;;;13.67;13.67;;;;;;;;5052552;28;51923;-59
2023/08/24 14:07:49;;;;;;;;;12.33;12.00;;;;;;;;5053118;28;51172;-59
2023/08/24 14:10:15;;;;;;;;;13.33;13.33;;;;;;;;5053003;28;50971;-59
2023/08/24 14:12:40;;;;;;;;;13.33;13.33;;;;;;;;5053387;28;50946;-59
2023/08/24 14:15:06;;;;;;;;;12.67;12.67;;;;;;;;5046552;28;51711;-59
2023/08/24 14:17:31;;;;;;;;;13.67;13.00;;;;;;;;5052643;28;51042;-59
2023/08/24 14:19:56;;;;;;;;;14.67;14.67;;;;;;;;5052952;28;51063;-59
2023/08/24 14:22:22;;;;;;;;;15.00;14.00;;;;;;;;5053021;28;51284;-60
2023/08/24 14:24:47;;;;;;;;;12.67;12.67;;;;;;;;5052771;28;51800;-59
2023/08/24 14:27:12;;;;;;;;;13.33;13.33;;;;;;;;3026068;28;58106785;-59
2023/08/24 14:29:37;;;;;;;;;12.00;12.00;;;;;;;;5052703;28;50931;-59